createdAt,value
2023-04-29T00:01:00.953Z,9.7543
2023-04-29T00:02:02.569Z,7.9924
2023-04-29T00:03:04.304Z,7.1069
2023-04-29T00:04:06.183Z,6.5033
2023-04-29T00:05:08.127Z,4.3828
2023-04-29T00:06:10.158Z,5.5970
2023-04-29T00:07:11.814Z,7.3216
2023-04-29T00:08:13.523Z,5.8723
2023-04-29T00:09:15.112Z,7.1037
2023-04-29T00:10:16.706Z,6.3474
2023-04-29T00:11:18.324Z,3.5266
2023-04-29T00:12:19.934Z,4.9364
2023-04-29T00:13:21.545Z,9.2250
2023-04-29T00:14:23.134Z,9.5171
2023-04-29T00:15:24.760Z,8.3484
2023-04-29T00:16:26.356Z,8.2262
2023-04-29T00:17:28.002Z,4.5848
2023-04-29T00:18:29.618Z,5.4596
2023-04-29T00:19:31.220Z,6.4618
2023-04-29T00:20:33.119Z,7.4903
2023-04-29T00:21:34.764Z,3.8189
2023-04-29T00:22:36.358Z,5.1697
2023-04-29T00:23:37.950Z,5.3463
2023-04-29T00:24:39.555Z,8.1110
2023-04-29T00:25:41.141Z,6.6396
2023-04-29T00:26:42.744Z,4.6441
2023-04-29T00:27:44.373Z,8.5189
2023-04-29T00:28:46.001Z,8.6970
2023-04-29T00:29:47.687Z,8.8073
2023-04-29T00:30:49.265Z,5.9321
2023-04-29T00:31:51.001Z,6.2900
2023-04-29T00:32:52.645Z,6.0383
2023-04-29T00:33:54.224Z,4.3479
2023-04-29T00:34:55.806Z,6.2884
2023-04-29T00:35:57.444Z,6.0531
2023-04-29T00:36:59.025Z,5.5224
2023-04-29T00:38:00.696Z,4.9354
2023-04-29T00:39:02.258Z,4.8764
2023-04-29T00:40:03.871Z,7.6400
2023-04-29T00:41:06.128Z,5.8767
2023-04-29T00:42:07.734Z,5.7576
2023-04-29T00:43:09.638Z,5.3255
2023-04-29T00:44:11.263Z,7.5724
2023-04-29T00:45:12.868Z,8.2281
2023-04-29T00:46:14.457Z,7.1102
2023-04-29T00:47:16.064Z,6.8776
2023-04-29T00:48:17.701Z,5.9320
2023-04-29T00:49:19.339Z,6.5807
2023-04-29T00:50:20.932Z,6.0492
2023-04-29T00:51:22.656Z,5.5244
2023-04-29T00:52:24.223Z,5.7514
2023-04-29T00:53:25.851Z,4.8186
2023-04-29T00:54:27.469Z,5.2273
2023-04-29T00:55:29.079Z,6.4657
2023-04-29T00:56:30.658Z,7.4626
2023-04-29T00:57:32.299Z,7.5808
2023-04-29T00:58:33.899Z,6.2859
2023-04-29T00:59:35.510Z,5.9953
2023-04-29T01:00:37.146Z,5.3453
2023-04-29T01:01:38.804Z,5.1709
2023-04-29T01:02:40.515Z,4.6353
2023-04-29T01:03:42.330Z,2.9929
2023-04-29T01:04:44.048Z,2.9244
2023-04-29T01:05:45.714Z,4.8720
2023-04-29T01:06:47.373Z,4.2870
2023-04-29T01:07:49.007Z,2.2321
2023-04-29T01:08:50.644Z,5.9888
2023-04-29T01:09:52.506Z,3.9961
2023-04-29T01:10:54.263Z,5.4901
2023-04-29T01:11:55.857Z,5.2282
2023-04-29T01:12:57.501Z,5.1690
2023-04-29T01:13:59.106Z,5.8165
2023-04-29T01:15:00.728Z,6.2288
2023-04-29T01:16:02.397Z,4.9910
2023-04-29T01:17:03.987Z,6.6408
2023-04-29T01:18:05.606Z,5.4050
2023-04-29T01:19:07.179Z,8.6984
2023-04-29T01:20:08.794Z,9.2859
2023-04-29T01:21:10.858Z,4.8989
2023-04-29T01:22:12.455Z,10.0507
2023-04-29T01:23:14.067Z,5.8752
2023-04-29T01:24:15.712Z,5.1120
2023-04-29T01:25:17.299Z,4.8170
2023-04-29T01:26:18.941Z,3.2911
2023-04-29T01:27:20.542Z,5.8159
2023-04-29T01:28:22.193Z,8.1638
2023-04-29T01:29:23.784Z,6.7571
2023-04-29T01:30:27.270Z,6.7300
2023-04-29T01:31:28.915Z,6.9909
2023-04-29T01:32:31.531Z,8.4606
2023-04-29T01:33:31.028Z,12.2010
2023-04-29T01:34:32.652Z,10.1054
2023-04-29T01:35:34.248Z,11.1054
2023-04-29T01:36:35.877Z,4.3489
2023-04-29T01:37:37.484Z,5.5214
2023-04-29T01:38:39.093Z,4.5257
2023-04-29T01:39:40.692Z,3.8775
2023-04-29T01:40:42.312Z,6.1124
2023-04-29T01:41:43.941Z,5.7573
2023-04-29T01:42:45.517Z,7.9349
2023-04-29T01:43:47.152Z,5.0536
2023-04-29T01:44:48.728Z,3.4078
2023-04-29T01:45:50.393Z,5.2303
2023-04-29T01:46:52.054Z,2.4660
2023-04-29T01:47:53.689Z,1.7612
2023-04-29T01:48:55.286Z,5.9953
2023-04-29T01:49:56.893Z,5.4043
2023-04-29T01:50:58.505Z,5.7582
2023-04-29T01:52:00.119Z,6.1106
2023-04-29T01:53:01.709Z,5.4649
2023-04-29T01:54:03.382Z,6.3471
2023-04-29T01:55:04.955Z,7.5192
2023-04-29T01:56:06.572Z,8.1672
2023-04-29T01:57:08.181Z,4.8161
2023-04-29T01:58:09.831Z,5.0530
2023-04-29T01:59:11.445Z,5.9340
2023-04-29T02:00:13.038Z,5.5236
2023-04-29T02:01:14.685Z,3.8778
2023-04-29T02:02:16.262Z,5.8747
2023-04-29T02:03:18.045Z,5.2306
2023-04-29T02:04:19.740Z,3.1630
2023-04-29T02:05:21.345Z,2.5240
2023-04-29T02:06:22.973Z,0.9995
2023-04-29T02:07:24.558Z,1.3509
2023-04-29T02:08:26.188Z,1.2342
2023-04-29T02:09:27.798Z,3.0540
2023-04-29T02:10:29.629Z,4.6861
2023-04-29T02:11:31.215Z,3.9381
2023-04-29T02:12:32.827Z,4.8160
2023-04-29T02:13:34.461Z,3.5855
2023-04-29T02:14:37.811Z,4.3468
2023-04-29T02:15:39.639Z,6.0360
2023-04-29T02:16:41.321Z,4.3489
2023-04-29T02:17:42.968Z,2.8159
2023-04-29T02:18:44.571Z,2.4681
2023-04-29T02:19:46.158Z,4.8182
2023-04-29T02:20:47.782Z,2.9970
2023-04-29T02:21:49.375Z,1.1168
2023-04-29T02:22:50.988Z,0.5876
2023-04-29T02:23:52.638Z,0.0587
2023-04-29T02:24:54.407Z,0.1175
2023-04-29T02:25:56.045Z,1.4646
2023-04-29T02:26:57.649Z,1.1751
2023-04-29T02:27:59.284Z,0.0000
2023-04-29T02:29:00.901Z,0.0000
2023-04-29T02:30:02.540Z,0.0000
2023-04-29T02:31:04.178Z,0.0000
2023-04-29T02:32:05.801Z,0.1764
2023-04-29T02:33:08.481Z,1.4681
2023-04-29T02:34:10.374Z,4.0249
2023-04-29T02:35:11.969Z,4.2888
2023-04-29T02:36:13.588Z,2.5268
2023-04-29T02:37:15.197Z,4.9957
2023-04-29T02:38:16.791Z,3.3495
2023-04-29T02:39:18.423Z,2.7623
2023-04-29T02:40:20.046Z,2.4671
2023-04-29T02:41:21.670Z,2.8192
2023-04-29T02:42:23.293Z,2.4673
2023-04-29T02:43:25.242Z,3.2721
2023-04-29T02:44:26.901Z,6.9938
2023-04-29T02:45:28.475Z,6.5191
2023-04-29T02:46:30.166Z,7.5789
2023-04-29T02:47:31.775Z,7.6320
2023-04-29T02:48:33.384Z,8.5813
2023-04-29T02:49:34.978Z,10.5160
2023-04-29T02:50:36.596Z,10.3437
2023-04-29T02:51:38.221Z,11.0431
2023-04-29T02:52:39.907Z,9.3982
2023-04-29T02:53:41.533Z,7.9250
2023-04-29T02:54:43.149Z,7.1090
2023-04-29T02:55:44.771Z,9.5175
2023-04-29T02:56:46.398Z,7.9309
2023-04-29T02:57:47.989Z,6.9323
2023-04-29T02:58:49.604Z,6.4652
2023-04-29T02:59:51.485Z,5.1117
2023-04-29T03:00:53.298Z,6.5398
2023-04-29T03:01:54.920Z,5.5157
2023-04-29T03:02:56.653Z,4.2304
2023-04-29T03:03:58.672Z,3.2699
2023-04-29T03:05:00.371Z,4.0994
2023-04-29T03:06:01.997Z,3.9347
2023-04-29T03:07:03.601Z,5.1138
2023-04-29T03:08:05.248Z,4.5794
2023-04-29T03:09:06.928Z,6.7579
2023-04-29T03:10:08.520Z,7.5755
2023-04-29T03:11:10.149Z,7.1656
2023-04-29T03:12:11.788Z,6.3446
2023-04-29T03:13:13.371Z,9.0456
2023-04-29T03:14:14.988Z,8.0523
2023-04-29T03:15:16.621Z,7.5790
2023-04-29T03:16:18.228Z,7.0501
2023-04-29T03:17:19.861Z,8.1656
2023-04-29T03:18:21.492Z,8.1053
2023-04-29T03:19:23.105Z,6.2878
2023-04-29T03:20:24.688Z,6.8160
2023-04-29T03:21:26.312Z,6.7597
2023-04-29T03:22:27.921Z,7.2822
2023-04-29T03:23:29.547Z,5.4056
2023-04-29T03:24:31.169Z,5.5825
2023-04-29T03:25:33.081Z,3.8026
2023-04-29T03:26:34.699Z,5.5783
2023-04-29T03:27:36.303Z,4.5245
2023-04-29T03:28:37.902Z,4.3476
2023-04-29T03:29:39.559Z,5.2312
2023-04-29T03:30:41.450Z,4.2694
2023-04-29T03:31:43.082Z,3.1716
2023-04-29T03:32:44.695Z,1.5861
2023-04-29T03:33:46.330Z,0.9986
2023-04-29T03:34:47.926Z,8.5175
2023-04-29T03:35:49.801Z,8.5437
2023-04-29T03:36:51.431Z,7.3443
2023-04-29T03:37:53.065Z,7.5773
2023-04-29T03:38:54.693Z,6.4593
2023-04-29T03:39:56.312Z,6.1700
2023-04-29T03:40:59.491Z,4.4704
2023-04-29T03:42:01.129Z,5.1098
2023-04-29T03:43:02.750Z,3.8766
2023-04-29T03:44:04.377Z,5.5215
2023-04-29T03:45:06.049Z,7.7475
2023-04-29T03:46:07.931Z,7.0246
2023-04-29T03:47:09.575Z,8.5173
2023-04-29T03:48:11.159Z,8.9843
2023-04-29T03:49:12.867Z,7.2885
2023-04-29T03:50:14.640Z,6.9211
2023-04-29T03:51:16.305Z,7.3842
2023-04-29T03:52:17.920Z,8.1002
2023-04-29T03:53:19.806Z,7.1983
2023-04-29T03:54:21.392Z,8.6369
2023-04-29T03:55:23.036Z,8.4636
2023-04-29T03:56:24.692Z,6.9305
2023-04-29T03:57:26.351Z,9.2780
2023-04-29T03:58:27.949Z,8.2181
2023-04-29T03:59:29.568Z,8.6990
2023-04-29T04:00:31.265Z,9.5771
2023-04-29T04:01:32.902Z,9.7948
2023-04-29T04:02:34.612Z,8.4642
2023-04-29T04:03:36.591Z,6.0330
2023-04-29T04:04:38.342Z,2.6879
2023-04-29T04:05:40.368Z,1.5156
2023-04-29T04:06:41.992Z,3.4070
2023-04-29T04:07:43.602Z,3.2905
2023-04-29T04:08:45.280Z,4.5236
2023-04-29T04:09:46.896Z,3.9901
2023-04-29T04:10:48.527Z,5.7591
2023-04-29T04:11:50.125Z,4.5240
2023-04-29T04:12:51.744Z,4.0545
2023-04-29T04:13:53.342Z,3.3487
2023-04-29T04:14:54.970Z,5.2901
2023-04-29T04:15:58.161Z,4.1264
2023-04-29T04:16:59.745Z,3.5833
2023-04-29T04:18:01.419Z,6.7005
2023-04-29T04:19:02.996Z,7.3389
2023-04-29T04:20:04.622Z,9.4613
2023-04-29T04:21:06.230Z,7.2271
2023-04-29T04:22:07.845Z,6.3459
2023-04-29T04:23:09.436Z,5.9334
2023-04-29T04:24:11.105Z,5.4072
2023-04-29T04:25:12.707Z,3.0528
2023-04-29T04:26:14.344Z,5.4647
2023-04-29T04:27:15.948Z,7.3421
2023-04-29T04:28:17.945Z,7.3042
2023-04-29T04:29:19.551Z,7.2245
2023-04-29T04:30:21.202Z,7.5195
2023-04-29T04:31:22.906Z,6.5177
2023-04-29T04:32:24.546Z,8.3953
2023-04-29T04:33:26.146Z,7.3994
2023-04-29T04:34:27.786Z,6.4604
2023-04-29T04:35:29.410Z,6.8176
2023-04-29T04:36:31.021Z,5.8143
2023-04-29T04:37:32.627Z,7.5197
2023-04-29T04:38:34.247Z,8.1107
2023-04-29T04:39:35.844Z,8.1675
2023-04-29T04:40:37.458Z,10.4587
2023-04-29T04:41:39.087Z,8.6391
2023-04-29T04:42:40.689Z,9.3410
2023-04-29T04:43:42.355Z,8.0483
2023-04-29T04:44:43.927Z,8.4040
2023-04-29T04:45:45.556Z,8.1074
2023-04-29T04:46:47.168Z,6.7532
2023-04-29T04:47:48.875Z,6.9941
2023-04-29T04:48:50.462Z,6.6912
2023-04-29T04:49:52.234Z,8.9311
2023-04-29T04:50:53.897Z,9.6016
2023-04-29T04:51:55.595Z,7.7587
2023-04-29T04:52:57.218Z,7.3321
2023-04-29T04:53:58.843Z,6.8750
2023-04-29T04:55:00.456Z,8.1654
2023-04-29T04:56:02.038Z,6.7590
2023-04-29T04:57:03.669Z,6.5816
2023-04-29T04:58:05.251Z,6.5812
2023-04-29T04:59:06.923Z,7.1663
2023-04-29T05:00:08.505Z,6.0516
2023-04-29T05:01:10.134Z,4.2897
2023-04-29T05:02:11.794Z,4.1694
2023-04-29T05:03:13.507Z,5.3424
2023-04-29T05:04:15.248Z,4.2793
2023-04-29T05:05:16.953Z,6.0392
2023-04-29T05:06:18.604Z,4.5808
2023-04-29T05:07:20.263Z,5.8710
2023-04-29T05:08:21.931Z,4.2261
2023-04-29T05:09:23.590Z,4.8153
2023-04-29T05:10:25.241Z,3.1709
2023-04-29T05:11:26.919Z,6.3957
2023-04-29T05:12:28.562Z,6.2248
2023-04-29T05:13:30.228Z,7.5166
2023-04-29T05:14:31.864Z,6.4592
2023-04-29T05:15:33.549Z,7.1629
2023-04-29T05:16:35.267Z,4.2841
2023-04-29T05:17:37.009Z,5.0999
2023-04-29T05:18:38.653Z,4.4628
2023-04-29T05:19:40.284Z,4.8722
2023-04-29T05:20:41.944Z,5.5787
2023-04-29T05:21:43.590Z,6.5176
2023-04-29T05:22:45.266Z,5.5201
2023-04-29T05:23:46.946Z,4.5188
2023-04-29T05:24:48.610Z,4.5210
2023-04-29T05:25:50.243Z,4.0511
2023-04-29T05:26:51.936Z,3.9347
2023-04-29T05:27:53.583Z,3.1692
2023-04-29T05:28:55.296Z,4.0508
2023-04-29T05:29:56.945Z,4.1079
2023-04-29T05:30:58.655Z,1.9960
2023-04-29T05:32:00.313Z,4.9283
2023-04-29T05:33:02.040Z,4.8154
2023-04-29T05:34:03.729Z,5.2762
2023-04-29T05:35:07.298Z,5.2832
2023-04-29T05:36:05.549Z,5.3544
2023-04-29T05:37:07.204Z,6.1081
2023-04-29T05:38:08.841Z,5.5186
2023-04-29T05:39:10.513Z,5.8141
2023-04-29T05:40:12.185Z,5.4606
2023-04-29T05:41:14.112Z,3.9753
2023-04-29T05:42:15.775Z,3.6959
2023-04-29T05:43:17.480Z,2.6434
2023-04-29T05:44:19.153Z,4.6938
2023-04-29T05:45:20.812Z,3.1116
2023-04-29T05:46:23.966Z,4.8707
2023-04-29T05:47:25.713Z,4.4632
2023-04-29T05:48:27.348Z,4.5735
2023-04-29T05:49:28.977Z,3.3481
2023-04-29T05:50:30.669Z,3.2306
2023-04-29T05:51:32.485Z,2.4582
2023-04-29T05:52:34.134Z,2.7597
2023-04-29T05:53:35.774Z,4.5793
2023-04-29T05:54:37.550Z,2.4668
2023-04-29T05:55:39.213Z,3.2811
2023-04-29T05:56:40.900Z,3.6997
2023-04-29T05:57:42.529Z,6.1642
2023-04-29T05:58:44.139Z,5.1105
2023-04-29T05:59:45.793Z,5.1107
2023-04-29T06:00:47.463Z,3.6402
2023-04-29T06:01:49.075Z,4.6408
2023-04-29T06:02:57.993Z,4.3443
2023-04-29T06:03:51.299Z,4.3178
2023-04-29T06:04:53.422Z,6.6604
2023-04-29T06:05:55.294Z,4.7240
2023-04-29T06:06:57.161Z,4.8455
2023-04-29T06:07:58.854Z,4.2273
2023-04-29T06:09:00.468Z,5.4003
2023-04-29T06:10:02.158Z,4.8178
2023-04-29T06:11:03.818Z,2.6996
2023-04-29T06:12:05.443Z,2.0554
2023-04-29T06:13:07.142Z,2.7010
2023-04-29T06:14:08.798Z,2.4647
2023-04-29T06:15:10.435Z,2.4084
2023-04-29T06:16:12.087Z,2.4665
2023-04-29T06:17:13.797Z,1.1731
2023-04-29T06:18:15.436Z,1.0566
2023-04-29T06:19:17.102Z,0.9397
2023-04-29T06:20:18.736Z,0.6459
2023-04-29T06:21:20.405Z,2.1142
2023-04-29T06:22:22.197Z,1.9962
2023-04-29T06:23:23.855Z,2.2854
2023-04-29T06:24:25.493Z,1.2911
2023-04-29T06:25:27.173Z,1.2921
2023-04-29T06:26:28.816Z,0.9391
2023-04-29T06:27:30.489Z,2.2320
2023-04-29T06:28:34.015Z,2.7939
2023-04-29T06:29:35.662Z,1.4083
2023-04-29T06:30:37.364Z,5.4014
2023-04-29T06:31:39.005Z,4.0509
2023-04-29T06:32:40.704Z,2.2309
2023-04-29T06:33:42.369Z,4.0467
2023-04-29T06:34:44.008Z,3.5828
2023-04-29T06:35:45.655Z,2.8770
2023-04-29T06:36:47.313Z,4.3458
2023-04-29T06:37:48.973Z,4.1688
2023-04-29T06:38:50.658Z,3.1098
2023-04-29T06:39:52.582Z,0.2349
2023-04-29T06:40:54.434Z,1.6902
2023-04-29T06:41:56.103Z,1.2330
2023-04-29T06:42:57.702Z,2.1142
2023-04-29T06:43:59.391Z,2.5838
2023-04-29T06:45:01.050Z,2.8759
2023-04-29T06:46:02.975Z,3.3352
2023-04-29T06:47:04.669Z,1.6431
2023-04-29T06:48:06.345Z,0.1760
2023-04-29T06:49:07.971Z,0.4698
2023-04-29T06:50:09.606Z,2.1143
2023-04-29T06:51:11.262Z,1.5856
2023-04-29T06:52:12.912Z,0.0000
2023-04-29T06:53:14.579Z,0.7046
2023-04-29T06:54:16.207Z,0.5872
2023-04-29T06:55:17.869Z,3.9349
2023-04-29T06:56:19.727Z,3.1587
2023-04-29T06:57:21.394Z,3.2897
2023-04-29T06:58:23.031Z,2.1721
2023-04-29T06:59:24.694Z,2.1728
2023-04-29T07:00:26.407Z,3.5814
2023-04-29T07:01:28.279Z,1.3450
2023-04-29T07:02:30.018Z,5.2223
2023-04-29T07:03:31.768Z,3.4007
2023-04-29T07:04:33.462Z,4.1634
2023-04-29T07:05:35.124Z,4.1078
2023-04-29T07:06:36.812Z,3.1116
2023-04-29T07:07:38.432Z,7.1636
2023-04-29T07:08:40.178Z,6.8117
2023-04-29T07:09:41.775Z,8.8604
2023-04-29T07:10:43.751Z,7.6528
2023-04-29T07:11:45.381Z,8.7531
2023-04-29T07:12:47.001Z,6.9302
2023-04-29T07:13:48.662Z,6.5195
2023-04-29T07:14:50.305Z,6.8702
2023-04-29T07:15:51.981Z,4.7561
2023-04-29T07:16:53.632Z,9.7475
2023-04-29T07:17:55.280Z,5.3456
2023-04-29T07:18:56.938Z,4.4033
2023-04-29T07:19:58.593Z,3.9911
2023-04-29T07:21:00.257Z,4.8726
2023-04-29T07:22:01.920Z,10.0412
2023-04-29T07:23:03.595Z,7.9233
2023-04-29T07:24:05.235Z,5.8132
2023-04-29T07:25:06.891Z,6.2266
2023-04-29T07:26:08.602Z,8.4480
2023-04-29T07:27:10.236Z,6.3396
2023-04-29T07:28:11.918Z,7.5187
2023-04-29T07:29:13.608Z,7.8636
2023-04-29T07:30:15.225Z,7.1044
2023-04-29T07:31:16.911Z,7.6359
2023-04-29T07:32:18.586Z,5.0451
2023-04-29T07:33:20.278Z,6.2810
2023-04-29T07:34:21.931Z,8.9222
2023-04-29T07:35:23.605Z,4.0525
2023-04-29T07:36:25.233Z,1.6441
2023-04-29T07:37:26.922Z,2.8183
2023-04-29T07:38:28.563Z,3.9902
2023-04-29T07:39:30.252Z,5.4621
2023-04-29T07:40:31.912Z,5.2811
2023-04-29T07:41:33.575Z,3.6402
2023-04-29T07:42:35.204Z,3.1121
2023-04-29T07:43:40.272Z,4.9764
2023-04-29T07:44:39.621Z,7.3458
2023-04-29T07:45:41.454Z,6.4388
2023-04-29T07:46:43.160Z,5.2290
2023-04-29T07:47:44.921Z,7.4446
2023-04-29T07:48:46.550Z,3.4617
2023-04-29T07:49:48.200Z,5.2846
2023-04-29T07:50:49.845Z,2.2904
2023-04-29T07:51:51.521Z,5.9872
2023-04-29T07:52:53.164Z,4.4041
2023-04-29T07:53:54.813Z,7.3420
2023-04-29T07:54:56.446Z,9.0415
2023-04-29T07:55:58.106Z,8.6915
2023-04-29T07:56:59.774Z,8.3360
2023-04-29T07:58:01.381Z,7.4018
2023-04-29T07:59:03.045Z,7.4602
2023-04-29T08:00:04.690Z,4.9313
2023-04-29T08:01:06.329Z,4.1699
2023-04-29T08:02:08.005Z,8.9837
2023-04-29T08:03:09.717Z,5.9893
2023-04-29T08:04:11.823Z,4.4551
2023-04-29T08:05:13.901Z,2.2108
2023-04-29T08:06:15.796Z,7.0633
2023-04-29T08:07:17.504Z,6.2066
2023-04-29T08:08:19.157Z,3.4035
2023-04-29T08:09:20.825Z,7.9874
2023-04-29T08:10:22.805Z,10.5088
2023-04-29T08:11:24.555Z,4.8422
2023-04-29T08:12:26.186Z,6.0479
2023-04-29T08:13:27.840Z,7.9269
2023-04-29T08:14:29.509Z,10.5093
2023-04-29T08:15:31.157Z,7.3983
2023-04-29T08:16:32.847Z,6.1057
2023-04-29T08:17:34.545Z,6.5737
2023-04-29T08:18:36.222Z,5.5170
2023-04-29T08:19:37.879Z,7.4546
2023-04-29T08:20:39.557Z,9.8595
2023-04-29T08:21:41.247Z,6.6924
2023-04-29T08:22:42.904Z,7.7477
2023-04-29T08:23:44.574Z,6.2823
2023-04-29T08:24:46.235Z,6.3965
2023-04-29T08:25:47.907Z,4.8735
2023-04-29T08:26:49.540Z,7.1620
2023-04-29T08:27:51.191Z,7.6364
2023-04-29T08:28:52.856Z,6.0476
2023-04-29T08:29:54.501Z,7.2223
2023-04-29T08:30:56.168Z,7.6923
2023-04-29T08:31:57.843Z,5.9313
2023-04-29T08:32:59.495Z,5.4002
2023-04-29T08:34:01.140Z,4.0515
2023-04-29T08:35:02.814Z,2.5255
2023-04-29T08:36:04.472Z,1.9364
2023-04-29T08:37:06.129Z,8.3405
2023-04-29T08:38:07.760Z,8.6280
2023-04-29T08:39:09.473Z,3.8768
2023-04-29T08:40:11.095Z,4.3423
2023-04-29T08:41:12.788Z,2.8188
2023-04-29T08:42:14.487Z,6.4573
2023-04-29T08:43:16.131Z,5.9834
2023-04-29T08:44:17.794Z,5.1091
2023-04-29T08:45:19.437Z,2.3487
2023-04-29T08:46:21.210Z,6.6372
2023-04-29T08:47:22.880Z,5.6274
2023-04-29T08:48:24.690Z,0.6446
2023-04-29T08:50:30.106Z,0.3506
2023-04-29T08:51:31.749Z,5.6976
2023-04-29T08:52:33.385Z,5.5780
2023-04-29T08:53:35.018Z,4.9922
2023-04-29T08:54:36.680Z,3.8178
2023-04-29T08:55:38.348Z,3.5800
2023-04-29T08:56:40.412Z,4.9327
2023-04-29T08:57:42.046Z,9.6249
2023-04-29T08:58:43.727Z,3.5237
2023-04-29T08:59:45.348Z,0.7046
2023-04-29T09:00:46.989Z,2.6426
2023-04-29T09:01:48.661Z,1.2922
2023-04-29T09:02:50.439Z,3.6378
2023-04-29T09:03:52.305Z,4.7476
2023-04-29T09:04:54.240Z,2.5143
2023-04-29T09:05:56.247Z,1.2812
2023-04-29T09:06:57.882Z,3.6962
2023-04-29T09:07:59.543Z,2.9364
2023-04-29T09:09:01.198Z,3.6409
2023-04-29T09:10:02.830Z,3.4643
2023-04-29T09:11:04.500Z,2.8779
2023-04-29T09:12:06.157Z,3.8159
2023-04-29T09:13:07.823Z,4.8729
2023-04-29T09:14:09.477Z,5.6931
2023-04-29T09:15:11.159Z,4.1695
2023-04-29T09:16:12.871Z,1.7617
2023-04-29T09:17:14.507Z,4.3394
2023-04-29T09:18:16.187Z,3.1710
2023-04-29T09:19:17.827Z,4.1684
2023-04-29T09:20:19.546Z,5.4616
2023-04-29T09:21:22.384Z,4.5188
2023-04-29T09:22:24.422Z,2.1776
2023-04-29T09:23:26.075Z,4.0478
2023-04-29T09:24:27.721Z,3.2302
2023-04-29T09:25:30.315Z,1.5033
2023-04-29T09:26:31.980Z,2.0551
2023-04-29T09:27:33.666Z,2.0543
2023-04-29T09:28:35.320Z,5.1648
2023-04-29T09:29:36.984Z,5.4614
2023-04-29T09:30:38.932Z,1.9291
2023-04-29T09:31:40.607Z,3.8747
2023-04-29T09:32:42.295Z,5.2845
2023-04-29T09:33:43.953Z,8.3271
2023-04-29T09:34:45.609Z,5.3454
2023-04-29T09:35:47.265Z,2.8760
2023-04-29T09:36:48.945Z,4.6994
2023-04-29T09:37:50.746Z,7.0251
2023-04-29T09:38:52.450Z,3.8151
2023-04-29T09:39:54.082Z,6.3397
2023-04-29T09:40:59.439Z,8.7500
2023-04-29T09:41:57.989Z,4.7717
2023-04-29T09:42:59.626Z,1.9955
2023-04-29T09:44:01.308Z,5.2278
2023-04-29T09:45:06.876Z,5.2415
2023-04-29T09:46:08.546Z,5.5790
2023-04-29T09:47:10.181Z,6.2841
2023-04-29T09:48:11.849Z,2.8768
2023-04-29T09:49:13.503Z,4.1083
2023-04-29T09:50:15.423Z,5.1489
2023-04-29T09:51:17.064Z,3.6390
2023-04-29T09:52:18.725Z,0.0587
2023-04-29T09:53:20.440Z,0.5873
2023-04-29T09:54:22.392Z,1.4587
2023-04-29T09:55:24.032Z,2.5263
2023-04-29T09:56:25.657Z,0.8222
2023-04-29T09:57:27.327Z,3.3479
2023-04-29T09:58:28.966Z,4.3436
2023-04-29T09:59:30.640Z,3.8167
2023-04-29T10:00:32.284Z,5.1677
2023-04-29T10:01:33.938Z,4.3456
2023-04-29T10:02:35.670Z,8.6911
2023-04-29T10:03:37.881Z,7.6829
2023-04-29T10:04:40.245Z,4.2818
2023-04-29T10:05:42.081Z,7.3397
2023-04-29T10:06:43.738Z,10.3858
2023-04-29T10:07:45.381Z,8.1615
2023-04-29T10:08:47.068Z,8.4528
2023-04-29T10:09:48.910Z,4.9317
2023-04-29T10:10:52.221Z,5.7583
2023-04-29T10:11:53.878Z,10.1593
2023-04-29T10:12:55.515Z,10.4514
2023-04-29T10:13:57.170Z,5.7546
2023-04-29T10:14:58.841Z,9.1587
2023-04-29T10:16:00.504Z,12.0953
2023-04-29T10:17:02.052Z,8.2385
2023-04-29T10:18:03.659Z,5.1663
2023-04-29T10:19:05.136Z,2.4739
2023-04-29T10:20:06.764Z,3.8169
2023-04-29T10:21:08.446Z,4.2278
2023-04-29T10:22:10.089Z,2.7000
2023-04-29T10:23:11.769Z,4.2291
2023-04-29T10:24:13.415Z,6.1640
2023-04-29T10:25:15.079Z,4.6401
2023-04-29T10:26:16.716Z,4.0507
2023-04-29T10:27:18.386Z,5.7550
2023-04-29T10:28:20.058Z,6.8688
2023-04-29T10:29:21.708Z,3.2282
2023-04-29T10:30:23.378Z,3.4644
2023-04-29T10:31:25.067Z,7.0457
2023-04-29T10:32:28.800Z,11.3324
2023-04-29T10:33:28.632Z,5.7884
2023-04-29T10:34:30.275Z,5.1663
2023-04-29T10:35:31.997Z,4.1041
2023-04-29T10:36:33.672Z,6.5769
2023-04-29T10:37:35.314Z,11.3335
2023-04-29T10:38:36.966Z,3.0537
2023-04-29T10:39:38.637Z,4.4628
2023-04-29T10:40:40.295Z,2.9930
2023-04-29T10:41:41.976Z,4.4624
2023-04-29T10:42:43.651Z,5.3424
2023-04-29T10:43:45.304Z,4.2263
2023-04-29T10:44:46.956Z,3.8743
2023-04-29T10:45:48.638Z,2.3489
2023-04-29T10:46:50.341Z,2.7587
2023-04-29T10:47:52.031Z,1.8194
2023-04-29T10:48:53.612Z,4.0518
2023-04-29T10:49:55.286Z,3.9933
2023-04-29T10:50:56.945Z,4.5198
2023-04-29T10:51:58.637Z,7.6326
2023-04-29T10:53:00.276Z,7.6918
2023-04-29T10:54:01.926Z,6.7506
2023-04-29T10:55:03.580Z,7.6358
2023-04-29T10:56:05.219Z,9.8652
2023-04-29T10:57:06.890Z,15.9741
2023-04-29T10:58:08.528Z,13.3255
2023-04-29T10:59:10.184Z,12.2179
2023-04-29T11:00:13.221Z,3.9921
2023-04-29T11:01:12.714Z,4.8834
2023-04-29T11:02:14.392Z,6.4468
2023-04-29T11:03:16.073Z,13.0969
2023-04-29T11:04:17.784Z,11.9128
2023-04-29T11:05:19.406Z,14.0272
2023-04-29T11:06:21.081Z,11.2757
2023-04-29T11:07:22.727Z,10.0370
2023-04-29T11:08:24.547Z,9.4563
2023-04-29T11:09:26.024Z,13.2111
2023-04-29T11:10:27.942Z,10.7039
2023-04-29T11:11:29.569Z,7.2797
2023-04-29T11:12:31.241Z,8.7515
2023-04-29T11:13:32.902Z,8.4514
2023-04-29T11:14:34.568Z,5.9917
2023-04-29T11:15:40.115Z,3.5878
2023-04-29T11:16:41.802Z,6.3445
2023-04-29T11:17:43.425Z,7.6312
2023-04-29T11:18:45.128Z,6.3942
2023-04-29T11:19:46.817Z,10.4545
2023-04-29T11:20:48.421Z,7.8080
2023-04-29T11:21:50.120Z,6.9299
2023-04-29T11:22:51.784Z,7.2781
2023-04-29T11:23:53.483Z,6.1052
2023-04-29T11:24:55.702Z,5.7476
2023-04-29T11:25:57.613Z,5.3911
2023-04-29T11:26:59.496Z,4.9307
2023-04-29T11:28:01.162Z,7.1393
2023-04-29T11:29:02.876Z,6.3376
2023-04-29T11:30:04.660Z,10.3251
2023-04-29T11:31:06.371Z,11.1409
2023-04-29T11:32:08.160Z,9.3822
2023-04-29T11:33:15.450Z,9.3743
2023-04-29T11:34:09.911Z,9.2210
2023-04-29T11:35:11.614Z,6.2216
2023-04-29T11:36:13.331Z,7.8584
2023-04-29T11:37:14.962Z,8.1618
2023-04-29T11:38:16.656Z,6.3981
2023-04-29T11:39:18.318Z,7.1611
2023-04-29T11:40:20.110Z,7.4416
2023-04-29T11:41:21.614Z,6.1223
2023-04-29T11:42:23.295Z,6.1612
2023-04-29T11:43:24.973Z,7.1606
2023-04-29T11:44:26.643Z,6.6338
2023-04-29T11:45:28.344Z,7.9245
2023-04-29T11:46:30.133Z,6.9242
2023-04-29T11:47:31.875Z,7.3270
2023-04-29T11:48:33.821Z,6.9446
2023-04-29T11:49:35.520Z,6.9257
2023-04-29T11:50:37.376Z,5.8493
2023-04-29T11:51:39.069Z,4.7548
2023-04-29T11:52:40.752Z,4.8707
2023-04-29T11:53:42.432Z,7.2209
2023-04-29T11:54:44.105Z,5.2225
2023-04-29T11:55:45.851Z,4.3422
2023-04-29T11:56:47.531Z,2.2879
2023-04-29T11:57:49.211Z,3.8725
2023-04-29T11:58:50.896Z,5.2837
2023-04-29T11:59:52.558Z,8.3918
2023-04-29T12:00:54.523Z,6.8416
2023-04-29T12:01:56.168Z,5.7503
2023-04-29T12:02:58.284Z,5.3712
2023-04-29T12:04:00.512Z,7.1409
2023-04-29T12:05:02.794Z,6.6253
2023-04-29T12:06:05.658Z,6.4375
2023-04-29T12:07:05.183Z,4.1947
2023-04-29T12:08:06.853Z,2.2886
2023-04-29T12:09:08.539Z,2.5247
2023-04-29T12:10:10.258Z,3.2265
2023-04-29T12:11:11.957Z,5.4553
2023-04-29T12:12:13.676Z,6.3958
2023-04-29T12:13:15.374Z,6.1581
2023-04-29T12:14:17.086Z,7.5715
2023-04-29T12:15:18.782Z,7.5079
2023-04-29T12:16:20.522Z,8.5097
2023-04-29T12:17:22.287Z,8.3215
2023-04-29T12:18:23.917Z,7.3353
2023-04-29T12:19:25.659Z,4.7543
2023-04-29T12:20:27.355Z,1.1730
2023-04-29T12:21:29.058Z,3.9303
2023-04-29T12:22:30.732Z,4.9879
2023-04-29T12:23:39.437Z,4.1100
2023-04-29T12:24:41.148Z,3.2274
2023-04-29T12:25:42.829Z,5.2808
2023-04-29T12:26:44.544Z,6.4552
2023-04-29T12:27:46.224Z,8.3916
2023-04-29T12:28:47.925Z,6.9246
2023-04-29T12:29:49.632Z,6.3365
2023-04-29T12:30:51.317Z,5.9262
2023-04-29T12:31:53.295Z,3.2866
2023-04-29T12:32:55.384Z,6.0998
2023-04-29T12:33:57.120Z,8.3220
2023-04-29T12:34:58.792Z,10.2675
2023-04-29T12:36:00.493Z,6.8091
2023-04-29T12:37:02.182Z,6.8053
2023-04-29T12:38:03.841Z,13.3253
2023-04-29T12:39:05.534Z,12.0342
2023-04-29T12:40:07.241Z,10.3838
2023-04-29T12:41:08.949Z,4.0485
2023-04-29T12:42:10.636Z,4.9870
2023-04-29T12:43:12.385Z,14.3700
2023-04-29T12:44:14.097Z,17.5495
2023-04-29T12:45:15.817Z,14.9520
2023-04-29T12:46:17.519Z,12.3734
2023-04-29T12:47:19.177Z,12.8665
2023-04-29T12:48:29.154Z,9.2660
2023-04-29T12:49:21.210Z,12.5392
2023-04-29T12:50:22.894Z,7.3938